Terminal Aerodrome Forecast
Issued by NWS

Home | Current Version | Previous Version | Graphics & Text | Print | Product List | Glossary On
Versions: 1 2 3 4 5 6 7 8 9 10 11 12 13 14 15 16 17
000
FTUS43 KJKL 300500
TAFSME
TAF
KSME 300538Z 3006/3106 31012G18KT P6SM VCSH OVC020
     FM301100 31009G15KT 3SM -SN OVC012
     FM301600 33010G18KT P6SM OVC022
     FM302000 33007KT P6SM SCT025=

USA.gov is the U.S. government's official web portal to all federal, state and local government web resources and services.